createdAt,value
2018-05-11T00:02:33.113Z,96.60
2018-05-11T00:05:31.118Z,96.80
2018-05-11T00:08:28.852Z,96.80
2018-05-11T00:11:26.591Z,97.00
2018-05-11T00:14:24.391Z,96.80
2018-05-11T00:17:22.261Z,96.90
2018-05-11T00:20:19.965Z,97.00
2018-05-11T00:23:17.803Z,97.30
2018-05-11T00:26:15.602Z,97.30
2018-05-11T00:29:13.634Z,97.40
2018-05-11T00:32:11.828Z,97.80
2018-05-11T00:35:09.747Z,97.90
2018-05-11T00:38:07.948Z,97.80
2018-05-11T00:41:05.902Z,97.80
2018-05-11T00:44:03.768Z,97.90
2018-05-11T00:47:01.857Z,98.00
2018-05-11T00:49:59.806Z,98.10
2018-05-11T00:52:57.749Z,97.90
2018-05-11T00:56:03.847Z,98.00
2018-05-11T00:59:01.847Z,98.10
2018-05-11T01:01:59.739Z,98.10
2018-05-11T01:04:57.742Z,98.30
2018-05-11T01:07:55.891Z,98.30
2018-05-11T01:10:54.595Z,98.50
2018-05-11T01:13:52.500Z,98.50
2018-05-11T01:16:50.312Z,98.50
2018-05-11T01:19:47.923Z,98.60
2018-05-11T01:22:45.729Z,98.60
2018-05-11T01:25:43.403Z,98.60
2018-05-11T01:28:41.433Z,98.80
2018-05-11T01:31:39.291Z,98.80
2018-05-11T01:34:37.112Z,98.80
2018-05-11T01:37:34.810Z,98.60
2018-05-11T01:40:32.484Z,98.60
2018-05-11T01:43:30.640Z,98.60
2018-05-11T01:46:28.699Z,98.60
2018-05-11T01:49:26.706Z,98.60
2018-05-11T01:52:24.787Z,98.80
2018-05-11T01:55:21.878Z,98.90
2018-05-11T01:58:19.725Z,99.00
2018-05-11T02:01:17.637Z,99.10
2018-05-11T02:04:14.660Z,99.20
2018-05-11T02:07:12.528Z,99.60
2018-05-11T02:10:10.389Z,99.20
2018-05-11T02:13:07.511Z,99.30
2018-05-11T02:16:05.387Z,99.30
2018-05-11T02:19:02.783Z,99.10
2018-05-11T02:22:00.624Z,99.00
2018-05-11T02:24:58.587Z,99.10
2018-05-11T02:27:55.755Z,99.10
2018-05-11T02:30:53.686Z,99.10
2018-05-11T02:33:51.538Z,99.00
2018-05-11T02:36:49.552Z,99.20
2018-05-11T02:39:46.826Z,99.20
2018-05-11T02:42:44.790Z,99.10
2018-05-11T02:45:42.404Z,99.10
2018-05-11T02:48:40.279Z,99.00
2018-05-11T02:51:38.194Z,98.90
2018-05-11T02:54:36.077Z,98.90
2018-05-11T02:57:33.827Z,98.90
2018-05-11T03:00:31.261Z,98.80
2018-05-11T03:03:29.580Z,98.60
2018-05-11T03:06:27.517Z,98.60
2018-05-11T03:09:25.179Z,98.60
2018-05-11T03:12:22.453Z,99.10
2018-05-11T03:15:20.404Z,98.60
2018-05-11T03:18:18.393Z,98.70
2018-05-11T03:21:16.128Z,99.10
2018-05-11T03:24:14.153Z,98.60
2018-05-11T03:27:13.139Z,98.40
2018-05-11T03:30:11.014Z,98.40
2018-05-11T03:33:08.147Z,98.30
2018-05-11T03:36:06.226Z,98.20
2018-05-11T03:39:04.194Z,98.10
2018-05-11T03:42:01.344Z,98.10
2018-05-11T03:44:59.222Z,97.90
2018-05-11T03:47:57.267Z,97.90
2018-05-11T03:50:55.237Z,97.80
2018-05-11T03:53:53.332Z,97.70
2018-05-11T03:56:51.941Z,97.70
2018-05-11T03:59:49.895Z,97.70
2018-05-11T04:02:59.583Z,97.50
2018-05-11T04:06:09.575Z,97.40
2018-05-11T04:09:15.520Z,97.20
2018-05-11T04:12:13.424Z,97.10
2018-05-11T04:15:11.641Z,97.00
2018-05-11T04:18:08.782Z,96.90
2018-05-11T04:21:06.163Z,96.70
2018-05-11T04:24:04.127Z,96.60
2018-05-11T04:27:02.185Z,96.40
2018-05-11T04:30:00.084Z,96.30
2018-05-11T04:32:58.034Z,96.30
2018-05-11T04:35:55.153Z,96.00
2018-05-11T04:38:52.190Z,95.70
2018-05-11T04:41:49.758Z,95.40
2018-05-11T04:44:47.555Z,95.20
2018-05-11T04:47:45.347Z,95.20
2018-05-11T04:50:42.642Z,95.30
2018-05-11T04:53:40.523Z,95.20
2018-05-11T04:56:38.245Z,95.20
2018-05-11T04:59:36.210Z,95.20
2018-05-11T05:02:34.035Z,95.00
2018-05-11T05:05:31.974Z,94.80
2018-05-11T05:08:29.817Z,94.80
2018-05-11T05:11:27.716Z,95.00
2018-05-11T05:14:25.930Z,94.30
2018-05-11T05:17:23.974Z,94.10
2018-05-11T05:20:21.799Z,94.00
2018-05-11T05:23:19.732Z,93.80
2018-05-11T05:26:16.837Z,93.70
2018-05-11T05:29:14.850Z,93.40
2018-05-11T05:32:12.802Z,93.30
2018-05-11T05:35:10.088Z,93.10
2018-05-11T05:38:10.497Z,93.40
2018-05-11T05:41:09.090Z,92.90
2018-05-11T05:44:07.339Z,92.80
2018-05-11T05:47:04.798Z,92.40
2018-05-11T05:50:02.682Z,92.00
2018-05-11T05:52:59.753Z,92.00
2018-05-11T05:55:57.705Z,92.00
2018-05-11T05:58:55.484Z,91.70
2018-05-11T06:01:53.428Z,91.70
2018-05-11T06:04:51.539Z,91.30
2018-05-11T06:07:49.015Z,91.30
2018-05-11T06:10:46.129Z,91.00
2018-05-11T06:13:43.403Z,90.80
2018-05-11T06:16:40.463Z,90.70
2018-05-11T06:19:38.488Z,90.60
2018-05-11T06:22:35.871Z,90.40
2018-05-11T06:25:33.884Z,90.10
2018-05-11T06:28:31.839Z,90.10
2018-05-11T06:31:28.855Z,90.10
2018-05-11T06:34:26.066Z,89.80
2018-05-11T06:37:24.175Z,89.50
2018-05-11T06:40:22.192Z,83.60
2018-05-11T06:43:20.015Z,83.60
2018-05-11T06:46:17.804Z,78.60
2018-05-11T06:49:16.488Z,71.70
2018-05-11T06:52:13.630Z,71.60
2018-05-11T06:55:10.687Z,69.70
2018-05-11T06:58:08.759Z,66.20
2018-05-11T07:01:06.855Z,66.20
2018-05-11T07:04:04.872Z,65.00
2018-05-11T07:07:02.731Z,65.00
2018-05-11T07:09:59.881Z,62.60
2018-05-11T07:12:57.682Z,63.20
2018-05-11T07:15:55.628Z,62.40
2018-05-11T07:18:53.241Z,62.60
2018-05-11T07:21:51.286Z,61.00
2018-05-11T07:24:49.243Z,61.00
2018-05-11T07:27:47.186Z,62.20
2018-05-11T07:30:45.071Z,64.20
2018-05-11T07:33:42.775Z,64.90
2018-05-11T07:36:40.774Z,64.50
2018-05-11T07:39:37.958Z,60.00
2018-05-11T07:42:35.803Z,57.90
2018-05-11T07:45:33.021Z,57.80
2018-05-11T07:48:30.796Z,57.90
2018-05-11T07:51:28.837Z,58.00
2018-05-11T07:54:26.655Z,57.50
2018-05-11T07:57:24.636Z,57.40
2018-05-11T08:00:22.444Z,57.90
2018-05-11T08:03:19.671Z,57.20
2018-05-11T08:06:17.562Z,56.20
2018-05-11T08:09:15.593Z,53.90
2018-05-11T08:12:13.535Z,53.70
2018-05-11T08:15:11.605Z,51.00
2018-05-11T08:18:09.417Z,50.30
2018-05-11T08:21:07.359Z,51.10
2018-05-11T08:24:06.049Z,53.00
2018-05-11T08:27:03.474Z,51.70
2018-05-11T08:30:00.697Z,51.90
2018-05-11T08:32:57.876Z,52.50
2018-05-11T08:35:55.002Z,51.90
2018-05-11T08:38:53.040Z,52.20
2018-05-11T08:41:52.040Z,54.00
2018-05-11T08:44:50.089Z,54.00
2018-05-11T08:47:48.008Z,52.70
2018-05-11T08:50:45.900Z,53.20
2018-05-11T08:53:43.878Z,53.30
2018-05-11T08:56:40.925Z,53.30
2018-05-11T08:59:38.005Z,53.00
2018-05-11T09:02:35.906Z,51.50
2018-05-11T09:05:33.950Z,51.20
2018-05-11T09:08:33.027Z,51.40
2018-05-11T09:11:30.368Z,52.50
2018-05-11T09:14:28.217Z,52.50
2018-05-11T09:17:25.365Z,52.60
2018-05-11T09:20:23.321Z,53.90
2018-05-11T09:23:21.378Z,51.50
2018-05-11T09:26:19.071Z,52.10
2018-05-11T09:29:16.942Z,49.90
2018-05-11T09:32:14.863Z,48.00
2018-05-11T09:35:12.777Z,47.90
2018-05-11T09:38:10.105Z,49.80
2018-05-11T09:41:07.939Z,47.00
2018-05-11T09:44:04.974Z,46.90
2018-05-11T09:47:02.188Z,46.50
2018-05-11T09:50:00.004Z,47.80
2018-05-11T09:52:57.950Z,47.90
2018-05-11T09:55:55.796Z,48.00
2018-05-11T09:58:52.981Z,48.50
2018-05-11T10:01:50.789Z,49.00
2018-05-11T10:04:49.599Z,49.80
2018-05-11T10:07:46.677Z,50.50
2018-05-11T10:10:44.505Z,49.50
2018-05-11T10:13:43.404Z,50.10
2018-05-11T10:16:41.213Z,50.40
2018-05-11T10:19:39.100Z,50.10
2018-05-11T10:22:36.960Z,50.20
2018-05-11T10:25:34.647Z,49.00
2018-05-11T10:28:32.570Z,47.50
2018-05-11T10:31:30.571Z,47.20
2018-05-11T10:34:28.544Z,47.10
2018-05-11T10:37:26.280Z,47.10
2018-05-11T10:40:24.117Z,48.80
2018-05-11T10:43:22.129Z,47.20
2018-05-11T10:46:20.008Z,48.50
2018-05-11T10:49:18.818Z,50.00
2018-05-11T10:52:16.824Z,52.20
2018-05-11T10:55:14.438Z,54.30
2018-05-11T10:58:12.270Z,54.20
2018-05-11T11:01:10.233Z,53.70
2018-05-11T11:04:08.273Z,53.10
2018-05-11T11:07:06.024Z,52.20
2018-05-11T11:10:03.893Z,54.20
2018-05-11T11:13:01.864Z,54.20
2018-05-11T11:15:59.736Z,55.10
2018-05-11T11:18:57.521Z,53.70
2018-05-11T11:21:55.594Z,54.00
2018-05-11T11:24:53.407Z,54.00
2018-05-11T11:27:51.253Z,50.60
2018-05-11T11:30:48.163Z,50.60
2018-05-11T11:33:46.078Z,51.20
2018-05-11T11:36:44.087Z,52.00
2018-05-11T11:39:41.914Z,51.90
2018-05-11T11:42:39.200Z,51.80
2018-05-11T11:45:36.966Z,50.20
2018-05-11T11:48:34.857Z,52.00
2018-05-11T11:51:32.101Z,53.00
2018-05-11T11:54:29.984Z,54.60
2018-05-11T11:57:27.811Z,54.90
2018-05-11T12:00:25.707Z,54.90
2018-05-11T12:03:23.646Z,56.40
2018-05-11T12:06:22.248Z,55.00
2018-05-11T12:09:19.266Z,55.00
2018-05-11T12:12:17.158Z,56.10
2018-05-11T12:15:15.484Z,56.60
2018-05-11T12:18:12.513Z,56.60
2018-05-11T12:21:09.598Z,56.40
2018-05-11T12:24:07.581Z,55.90
2018-05-11T12:27:05.324Z,55.80
2018-05-11T12:30:02.935Z,55.20
2018-05-11T12:33:00.729Z,55.20
2018-05-11T12:35:57.919Z,56.30
2018-05-11T12:38:55.706Z,55.80
2018-05-11T12:41:53.707Z,55.10
2018-05-11T12:44:51.519Z,56.10
2018-05-11T12:47:49.430Z,56.10
2018-05-11T12:50:47.483Z,56.90
2018-05-11T12:53:45.316Z,55.70
2018-05-11T12:56:43.183Z,56.20
2018-05-11T12:59:41.176Z,56.90
2018-05-11T13:02:38.991Z,57.00
2018-05-11T13:05:36.912Z,56.90
2018-05-11T13:08:34.799Z,57.50
2018-05-11T13:11:32.773Z,56.80
2018-05-11T13:14:30.715Z,56.90
2018-05-11T13:17:28.844Z,56.80
2018-05-11T13:20:26.911Z,56.80
2018-05-11T13:23:24.903Z,56.80
2018-05-11T13:26:23.041Z,56.50
2018-05-11T13:29:21.025Z,56.40
2018-05-11T13:32:18.965Z,57.20
2018-05-11T13:35:17.069Z,57.90
2018-05-11T13:38:14.897Z,57.90
2018-05-11T13:41:12.998Z,58.00
2018-05-11T13:44:10.881Z,58.70
2018-05-11T13:47:08.776Z,58.50
2018-05-11T13:50:06.900Z,58.20
2018-05-11T13:53:04.841Z,58.80
2018-05-11T13:56:02.855Z,59.30
2018-05-11T13:59:00.840Z,59.20
2018-05-11T14:01:59.063Z,59.50
2018-05-11T14:04:56.497Z,59.90
2018-05-11T14:07:54.556Z,61.20
2018-05-11T14:10:52.492Z,61.70
2018-05-11T14:13:50.350Z,61.70
2018-05-11T14:16:47.401Z,61.70
2018-05-11T14:19:44.845Z,62.00
2018-05-11T14:22:41.880Z,62.50
2018-05-11T14:25:39.065Z,62.90
2018-05-11T14:28:36.856Z,62.10
2018-05-11T14:31:34.861Z,62.30
2018-05-11T14:34:31.973Z,62.90
2018-05-11T14:37:30.170Z,64.10
2018-05-11T14:40:28.169Z,64.10
2018-05-11T14:43:26.146Z,63.10
2018-05-11T14:46:24.020Z,62.20
2018-05-11T14:49:21.342Z,63.40
2018-05-11T14:52:19.293Z,64.60
2018-05-11T14:55:18.272Z,64.80
2018-05-11T14:58:16.068Z,65.30
2018-05-11T15:01:13.977Z,66.00
2018-05-11T15:04:13.124Z,66.50
2018-05-11T15:07:11.297Z,67.50
2018-05-11T15:10:09.084Z,67.50
2018-05-11T15:13:06.932Z,66.70
2018-05-11T15:16:05.176Z,66.80
2018-05-11T15:19:02.979Z,67.90
2018-05-11T15:22:00.623Z,68.10
2018-05-11T15:24:58.329Z,69.10
2018-05-11T15:27:56.194Z,69.50
2018-05-11T15:30:54.087Z,69.40
2018-05-11T15:33:52.222Z,69.80
2018-05-11T15:36:50.071Z,70.20
2018-05-11T15:39:47.947Z,70.30
2018-05-11T15:42:45.728Z,71.40
2018-05-11T15:45:43.682Z,71.30
2018-05-11T15:48:40.925Z,71.80
2018-05-11T15:51:37.979Z,72.40
2018-05-11T15:54:35.976Z,74.20
2018-05-11T15:57:33.866Z,74.80
2018-05-11T16:00:31.795Z,74.80
2018-05-11T16:03:29.623Z,75.20
2018-05-11T16:06:26.764Z,75.60
2018-05-11T16:09:23.824Z,76.70
2018-05-11T16:12:21.720Z,76.30
2018-05-11T16:15:18.789Z,76.40
2018-05-11T16:18:16.804Z,76.60
2018-05-11T16:21:13.816Z,76.90
2018-05-11T16:24:10.828Z,77.80
2018-05-11T16:27:08.868Z,77.60
2018-05-11T16:30:06.048Z,78.00
2018-05-11T16:33:03.877Z,78.30
2018-05-11T16:36:00.958Z,78.50
2018-05-11T16:38:58.820Z,78.70
2018-05-11T16:41:56.591Z,79.60
2018-05-11T16:44:54.411Z,79.70
2018-05-11T16:47:52.323Z,81.80
2018-05-11T16:50:50.045Z,80.80
2018-05-11T16:53:48.899Z,81.40
2018-05-11T16:56:46.844Z,81.70
2018-05-11T16:59:44.716Z,82.70
2018-05-11T17:02:43.451Z,82.80
2018-05-11T17:05:40.550Z,83.50
2018-05-11T17:08:38.659Z,83.50
2018-05-11T17:11:37.493Z,84.40
2018-05-11T17:14:35.599Z,86.00
2018-05-11T17:17:35.569Z,86.00
2018-05-11T17:20:32.759Z,86.60
2018-05-11T17:23:30.559Z,86.90
2018-05-11T17:26:28.358Z,87.80
2018-05-11T17:29:26.353Z,88.50
2018-05-11T17:32:24.254Z,88.30
2018-05-11T17:35:21.982Z,88.90
2018-05-11T17:38:19.802Z,89.70
2018-05-11T17:41:17.763Z,90.10
2018-05-11T17:44:15.572Z,90.20
2018-05-11T17:47:13.435Z,90.30
2018-05-11T17:50:11.101Z,90.70
2018-05-11T17:53:08.156Z,90.70
2018-05-11T17:56:06.095Z,90.90
2018-05-11T17:59:03.044Z,91.20
2018-05-11T18:02:00.842Z,91.20
2018-05-11T18:04:58.473Z,91.20
2018-05-11T18:07:56.443Z,91.10
2018-05-11T18:10:54.683Z,91.70
2018-05-11T18:13:52.722Z,91.70
2018-05-11T18:16:50.674Z,91.80
2018-05-11T18:19:48.604Z,92.30
2018-05-11T18:22:47.768Z,91.90
2018-05-11T18:25:45.240Z,92.00
2018-05-11T18:28:43.268Z,92.10
2018-05-11T18:31:40.511Z,92.10
2018-05-11T18:34:38.473Z,92.30
2018-05-11T18:37:36.475Z,92.50
2018-05-11T18:40:34.551Z,92.60
2018-05-11T18:43:32.472Z,92.60
2018-05-11T18:46:30.310Z,92.60
2018-05-11T18:49:27.754Z,92.80
2018-05-11T18:52:26.088Z,92.70
2018-05-11T18:55:23.935Z,92.80
2018-05-11T18:58:20.953Z,92.90
2018-05-11T19:01:17.992Z,93.10
2018-05-11T19:04:15.927Z,93.10
2018-05-11T19:07:12.983Z,93.00
2018-05-11T19:10:10.116Z,93.10
2018-05-11T19:13:07.240Z,93.40
2018-05-11T19:16:05.175Z,93.40
2018-05-11T19:19:03.054Z,93.50
2018-05-11T19:22:00.356Z,93.60
2018-05-11T19:24:58.336Z,93.80
2018-05-11T19:27:55.473Z,93.70
2018-05-11T19:30:53.479Z,94.00
2018-05-11T19:33:50.777Z,94.00
2018-05-11T19:36:48.499Z,93.90
2018-05-11T19:39:46.485Z,94.20
2018-05-11T19:42:43.777Z,94.40
2018-05-11T19:45:41.045Z,94.30
2018-05-11T19:48:38.995Z,94.40
2018-05-11T19:51:36.849Z,94.30
2018-05-11T19:54:34.100Z,94.50
2018-05-11T19:57:32.970Z,94.50
2018-05-11T20:00:30.212Z,94.70
2018-05-11T20:03:27.885Z,94.70
2018-05-11T20:06:25.956Z,95.00
2018-05-11T20:09:23.140Z,95.00
2018-05-11T20:12:20.191Z,95.10
2018-05-11T20:15:18.055Z,95.10
2018-05-11T20:18:15.992Z,95.00
2018-05-11T20:21:14.095Z,95.00
2018-05-11T20:24:11.835Z,95.10
2018-05-11T20:27:09.505Z,95.30
2018-05-11T20:30:07.304Z,95.20
2018-05-11T20:33:05.167Z,95.20
2018-05-11T20:36:03.133Z,95.20
2018-05-11T20:39:00.289Z,95.30
2018-05-11T20:41:57.432Z,95.40
2018-05-11T20:44:55.096Z,95.50
2018-05-11T20:47:52.240Z,95.60
2018-05-11T20:50:51.450Z,95.90
2018-05-11T20:53:49.526Z,95.90
2018-05-11T20:56:47.484Z,95.80
2018-05-11T20:59:45.429Z,95.70
2018-05-11T21:02:43.468Z,95.90
2018-05-11T21:05:41.392Z,95.90
2018-05-11T21:08:39.267Z,95.90
2018-05-11T21:11:36.287Z,96.10
2018-05-11T21:14:34.278Z,95.90
2018-05-11T21:17:32.187Z,96.20
2018-05-11T21:20:31.143Z,96.40
2018-05-11T21:23:28.945Z,96.40
2018-05-11T21:26:26.186Z,96.40
2018-05-11T21:29:24.051Z,96.60
2018-05-11T21:32:21.036Z,96.60
2018-05-11T21:35:18.150Z,96.90
2018-05-11T21:38:16.078Z,97.10
2018-05-11T21:41:13.991Z,97.50
2018-05-11T21:44:12.118Z,97.10
2018-05-11T21:47:09.800Z,97.30
2018-05-11T21:50:07.020Z,97.50
2018-05-11T21:53:05.668Z,97.50
2018-05-11T21:56:03.259Z,97.50
2018-05-11T21:59:01.440Z,97.60
2018-05-11T22:02:00.133Z,97.80
2018-05-11T22:04:57.308Z,97.80
2018-05-11T22:07:55.193Z,97.90
2018-05-11T22:10:53.092Z,97.80
2018-05-11T22:13:51.151Z,98.00
2018-05-11T22:16:48.984Z,98.10
2018-05-11T22:19:48.164Z,98.10
2018-05-11T22:22:45.984Z,98.00
2018-05-11T22:25:43.186Z,98.10
2018-05-11T22:28:41.688Z,98.40
2018-05-11T22:31:40.189Z,98.90
2018-05-11T22:34:38.208Z,98.90
2018-05-11T22:37:35.148Z,98.70
2018-05-11T22:40:32.956Z,98.70
2018-05-11T22:43:30.861Z,98.60
2018-05-11T22:46:28.024Z,99.00
2018-05-11T22:49:25.784Z,99.10
2018-05-11T22:52:23.776Z,99.10
2018-05-11T22:55:21.749Z,99.00
2018-05-11T22:58:19.785Z,98.90
2018-05-11T23:01:16.824Z,99.00
2018-05-11T23:04:14.761Z,99.20
2018-05-11T23:07:13.736Z,99.20
2018-05-11T23:10:11.891Z,99.30
2018-05-11T23:13:10.004Z,99.20
2018-05-11T23:16:07.942Z,99.40
2018-05-11T23:19:05.601Z,99.50
2018-05-11T23:22:03.738Z,99.60
2018-05-11T23:25:01.906Z,99.60
2018-05-11T23:27:58.944Z,99.70
2018-05-11T23:30:56.103Z,99.70
2018-05-11T23:33:55.067Z,99.90
2018-05-11T23:36:52.930Z,99.70
2018-05-11T23:39:50.896Z,99.80
2018-05-11T23:42:47.893Z,99.70
2018-05-11T23:45:51.861Z,99.60
2018-05-11T23:48:49.951Z,99.90
2018-05-11T23:51:47.785Z,99.90
2018-05-11T23:54:45.556Z,99.70
2018-05-11T23:57:44.340Z,99.60
